Estación Meteorológica Peña el Pijo (Robertgarden) [ 08/17/18 05:39:26 CEST ]

Fecha Hora Presion(HPa) Temp (°C) Humedad % Rocio (°C) Viento ( m/s) Direccion Lluvia 1Hora(mm) Lluvia 24H(mm) LLuvia Total(mm)
2018-Apr-07 01:01:46 999.900 8.0 73 3.5         185.44
2018-Apr-07 02:01:32 999.500 7.0 75 2.9         185.44
2018-Apr-07 03:03:09 999.200 6.2 78 2.6         185.44
2018-Apr-07 04:01:41 998.500 5.7 80 2.5         185.44
2018-Apr-07 05:01:25 998.000 5.6 81 2.6         185.44
2018-Apr-07 06:01:34 997.500 5.0 82 2.2         185.44
2018-Apr-07 07:01:32 997.800 5.8 83 3.3         185.44
2018-Apr-07 08:01:25 997.300 6.3 83 3.6         185.44
2018-Apr-07 09:01:18 997.700 7.3 83 4.6         185.44
2018-Apr-07 10:01:34 997.700 9.4 80 6.1         185.44
2018-Apr-07 11:01:26 997.600 11.4 73 6.6         185.44
2018-Apr-07 12:01:12 997.700 12.2 70 6.9 1.9 ENE     185.44
2018-Apr-07 13:01:25 997.600 12.2 70 6.9         185.44
2018-Apr-07 14:01:14 997.000 11.9 70 6.6         185.44
2018-Apr-07 15:01:44 996.400 12.3 69 6.8         185.44
2018-Apr-07 16:01:51 996.500 9.9 69 4.5         185.44
2018-Apr-07 17:02:14 997.200 7.9 78 4.3     2.59 2.59 188.03
2018-Apr-07 18:01:41 997.400 6.9 80 3.7     1.55 4.14 189.58
2018-Apr-07 19:01:48 997.600 6.9 81 3.9 1.8 WNW 0.51 4.66 190.10
2018-Apr-07 20:01:59 997.800 6.9 79 3.5       4.66 190.10
2018-Apr-07 21:01:54 997.900 5.9 78 2.3       4.66 190.10
2018-Apr-07 22:01:43 998.600 5.9 80 2.7       4.66 190.10
2018-Apr-07 23:01:58 998.700 4.4 81 1.4       4.66 190.10

Temperatura Máxima:12°    Temperatura Mínima:
Presión Máxima:999.900 Hpa    Presión Mínima:996.400 Hpa


Volver